sensor_id;sensor_type;location;lat;lon;timestamp;P1;durP1;ratioP1;P2;durP2;ratioP2
44766;SDS011;30487;48.716;9.272;2023-03-30T00:01:18;8.77;;;1.90;;
44766;SDS011;30487;48.716;9.272;2023-03-30T00:03:45;12.40;;;2.33;;
44766;SDS011;30487;48.716;9.272;2023-03-30T00:06:12;8.88;;;1.67;;
44766;SDS011;30487;48.716;9.272;2023-03-30T00:08:45;9.73;;;1.98;;
44766;SDS011;30487;48.716;9.272;2023-03-30T00:11:12;11.02;;;1.90;;
44766;SDS011;30487;48.716;9.272;2023-03-30T00:13:39;11.05;;;1.90;;
44766;SDS011;30487;48.716;9.272;2023-03-30T00:16:07;11.10;;;2.13;;
44766;SDS011;30487;48.716;9.272;2023-03-30T00:18:34;11.23;;;2.22;;
44766;SDS011;30487;48.716;9.272;2023-03-30T00:21:01;9.50;;;1.98;;
44766;SDS011;30487;48.716;9.272;2023-03-30T00:23:27;11.30;;;2.17;;
44766;SDS011;30487;48.716;9.272;2023-03-30T00:25:54;10.05;;;1.90;;
44766;SDS011;30487;48.716;9.272;2023-03-30T00:28:19;8.27;;;1.50;;
44766;SDS011;30487;48.716;9.272;2023-03-30T00:30:46;11.27;;;1.92;;
44766;SDS011;30487;48.716;9.272;2023-03-30T00:33:12;10.38;;;2.22;;
44766;SDS011;30487;48.716;9.272;2023-03-30T00:35:37;8.35;;;1.75;;
44766;SDS011;30487;48.716;9.272;2023-03-30T00:38:03;7.25;;;1.65;;
44766;SDS011;30487;48.716;9.272;2023-03-30T00:40:30;7.13;;;1.70;;
44766;SDS011;30487;48.716;9.272;2023-03-30T00:43:01;12.38;;;1.92;;
44766;SDS011;30487;48.716;9.272;2023-03-30T00:50:39;12.38;;;1.70;;
44766;SDS011;30487;48.716;9.272;2023-03-30T00:53:28;10.70;;;1.65;;
44766;SDS011;30487;48.716;9.272;2023-03-30T00:56:03;6.38;;;1.77;;
44766;SDS011;30487;48.716;9.272;2023-03-30T00:58:31;10.90;;;1.65;;
44766;SDS011;30487;48.716;9.272;2023-03-30T01:00:59;6.13;;;1.80;;
44766;SDS011;30487;48.716;9.272;2023-03-30T01:03:29;7.97;;;1.52;;
44766;SDS011;30487;48.716;9.272;2023-03-30T01:05:57;10.20;;;1.92;;
44766;SDS011;30487;48.716;9.272;2023-03-30T01:08:26;9.57;;;1.60;;
44766;SDS011;30487;48.716;9.272;2023-03-30T01:10:58;8.35;;;1.90;;
44766;SDS011;30487;48.716;9.272;2023-03-30T01:13:29;7.72;;;1.77;;
44766;SDS011;30487;48.716;9.272;2023-03-30T01:19:02;9.55;;;1.98;;
44766;SDS011;30487;48.716;9.272;2023-03-30T01:30:02;14.05;;;2.25;;
44766;SDS011;30487;48.716;9.272;2023-03-30T01:32:43;10.30;;;1.45;;
44766;SDS011;30487;48.716;9.272;2023-03-30T01:38:06;11.85;;;1.92;;
44766;SDS011;30487;48.716;9.272;2023-03-30T01:43:19;14.57;;;2.17;;
44766;SDS011;30487;48.716;9.272;2023-03-30T01:48:49;9.68;;;1.92;;
44766;SDS011;30487;48.716;9.272;2023-03-30T01:51:26;10.50;;;1.90;;
44766;SDS011;30487;48.716;9.272;2023-03-30T01:54:00;17.27;;;2.45;;
44766;SDS011;30487;48.716;9.272;2023-03-30T01:56:41;12.60;;;1.95;;
44766;SDS011;30487;48.716;9.272;2023-03-30T01:59:16;11.85;;;2.05;;
44766;SDS011;30487;48.716;9.272;2023-03-30T02:01:50;13.60;;;2.00;;
44766;SDS011;30487;48.716;9.272;2023-03-30T02:04:24;17.52;;;2.10;;
44766;SDS011;30487;48.716;9.272;2023-03-30T02:06:54;15.35;;;1.95;;
44766;SDS011;30487;48.716;9.272;2023-03-30T02:09:26;12.00;;;2.50;;
44766;SDS011;30487;48.716;9.272;2023-03-30T02:11:53;12.13;;;2.03;;
44766;SDS011;30487;48.716;9.272;2023-03-30T02:14:21;13.93;;;1.70;;
44766;SDS011;30487;48.716;9.272;2023-03-30T02:16:53;10.73;;;1.90;;
44766;SDS011;30487;48.716;9.272;2023-03-30T02:19:26;13.63;;;2.00;;
44766;SDS011;30487;48.716;9.272;2023-03-30T02:21:52;11.13;;;2.20;;
44766;SDS011;30487;48.716;9.272;2023-03-30T02:24:19;14.52;;;2.15;;
44766;SDS011;30487;48.716;9.272;2023-03-30T02:26:49;12.05;;;2.15;;
44766;SDS011;30487;48.716;9.272;2023-03-30T02:29:15;10.88;;;2.22;;
44766;SDS011;30487;48.716;9.272;2023-03-30T02:31:42;13.82;;;2.00;;
44766;SDS011;30487;48.716;9.272;2023-03-30T02:34:13;17.67;;;2.05;;
44766;SDS011;30487;48.716;9.272;2023-03-30T02:37:02;18.25;;;2.47;;
44766;SDS011;30487;48.716;9.272;2023-03-30T02:44:55;13.27;;;2.40;;
44766;SDS011;30487;48.716;9.272;2023-03-30T02:47:30;7.63;;;1.90;;
44766;SDS011;30487;48.716;9.272;2023-03-30T02:50:21;12.23;;;1.70;;
44766;SDS011;30487;48.716;9.272;2023-03-30T02:52:55;13.07;;;2.47;;
44766;SDS011;30487;48.716;9.272;2023-03-30T03:03:35;12.70;;;1.98;;
44766;SDS011;30487;48.716;9.272;2023-03-30T03:06:04;16.33;;;2.15;;
44766;SDS011;30487;48.716;9.272;2023-03-30T03:08:34;13.57;;;1.83;;
44766;SDS011;30487;48.716;9.272;2023-03-30T03:11:01;14.23;;;2.30;;
44766;SDS011;30487;48.716;9.272;2023-03-30T03:13:27;9.65;;;1.98;;
44766;SDS011;30487;48.716;9.272;2023-03-30T03:15:53;12.73;;;2.55;;
44766;SDS011;30487;48.716;9.272;2023-03-30T03:18:22;11.85;;;2.20;;
44766;SDS011;30487;48.716;9.272;2023-03-30T03:20:48;15.73;;;2.30;;
44766;SDS011;30487;48.716;9.272;2023-03-30T03:23:15;16.83;;;2.22;;
44766;SDS011;30487;48.716;9.272;2023-03-30T03:25:40;10.55;;;2.03;;
44766;SDS011;30487;48.716;9.272;2023-03-30T03:28:06;9.77;;;2.08;;
44766;SDS011;30487;48.716;9.272;2023-03-30T03:30:32;11.07;;;2.88;;
44766;SDS011;30487;48.716;9.272;2023-03-30T03:32:57;11.18;;;2.40;;
44766;SDS011;30487;48.716;9.272;2023-03-30T03:35:23;9.85;;;2.25;;
44766;SDS011;30487;48.716;9.272;2023-03-30T03:37:49;9.35;;;2.47;;
44766;SDS011;30487;48.716;9.272;2023-03-30T03:40:14;11.30;;;1.95;;
44766;SDS011;30487;48.716;9.272;2023-03-30T03:42:40;12.20;;;2.35;;
44766;SDS011;30487;48.716;9.272;2023-03-30T03:45:06;10.88;;;2.40;;
44766;SDS011;30487;48.716;9.272;2023-03-30T03:47:32;9.90;;;1.98;;
44766;SDS011;30487;48.716;9.272;2023-03-30T03:49:58;12.55;;;2.25;;
44766;SDS011;30487;48.716;9.272;2023-03-30T03:52:27;15.48;;;2.53;;
44766;SDS011;30487;48.716;9.272;2023-03-30T03:54:56;13.25;;;1.98;;
44766;SDS011;30487;48.716;9.272;2023-03-30T03:57:21;10.32;;;2.17;;
44766;SDS011;30487;48.716;9.272;2023-03-30T03:59:50;10.73;;;2.15;;
44766;SDS011;30487;48.716;9.272;2023-03-30T04:02:17;12.90;;;2.33;;
44766;SDS011;30487;48.716;9.272;2023-03-30T04:04:42;16.20;;;2.35;;
44766;SDS011;30487;48.716;9.272;2023-03-30T04:07:08;11.10;;;1.77;;
44766;SDS011;30487;48.716;9.272;2023-03-30T04:09:34;15.50;;;2.90;;
44766;SDS011;30487;48.716;9.272;2023-03-30T04:11:59;14.70;;;2.40;;
44766;SDS011;30487;48.716;9.272;2023-03-30T04:14:25;12.55;;;2.88;;
44766;SDS011;30487;48.716;9.272;2023-03-30T04:16:50;9.20;;;1.75;;
44766;SDS011;30487;48.716;9.272;2023-03-30T04:19:16;14.95;;;2.50;;
44766;SDS011;30487;48.716;9.272;2023-03-30T04:21:42;6.13;;;2.05;;
44766;SDS011;30487;48.716;9.272;2023-03-30T04:24:11;11.25;;;2.38;;
44766;SDS011;30487;48.716;9.272;2023-03-30T04:26:37;14.35;;;2.38;;
44766;SDS011;30487;48.716;9.272;2023-03-30T04:29:05;17.02;;;2.70;;
44766;SDS011;30487;48.716;9.272;2023-03-30T04:31:32;14.80;;;2.58;;
44766;SDS011;30487;48.716;9.272;2023-03-30T04:33:58;9.25;;;2.47;;
44766;SDS011;30487;48.716;9.272;2023-03-30T04:36:26;21.83;;;2.80;;
44766;SDS011;30487;48.716;9.272;2023-03-30T04:38:53;11.23;;;1.98;;
44766;SDS011;30487;48.716;9.272;2023-03-30T04:41:29;12.55;;;2.38;;
44766;SDS011;30487;48.716;9.272;2023-03-30T04:43:57;8.20;;;1.77;;
44766;SDS011;30487;48.716;9.272;2023-03-30T04:46:26;12.70;;;2.13;;
44766;SDS011;30487;48.716;9.272;2023-03-30T04:48:52;8.40;;;2.22;;
44766;SDS011;30487;48.716;9.272;2023-03-30T04:51:18;9.60;;;2.10;;
44766;SDS011;30487;48.716;9.272;2023-03-30T04:53:43;15.05;;;2.70;;
44766;SDS011;30487;48.716;9.272;2023-03-30T04:56:09;14.02;;;1.95;;
44766;SDS011;30487;48.716;9.272;2023-03-30T04:58:35;14.07;;;2.40;;
44766;SDS011;30487;48.716;9.272;2023-03-30T05:01:01;15.05;;;3.15;;
44766;SDS011;30487;48.716;9.272;2023-03-30T05:03:27;15.27;;;2.38;;
44766;SDS011;30487;48.716;9.272;2023-03-30T05:05:53;10.40;;;2.50;;
44766;SDS011;30487;48.716;9.272;2023-03-30T05:08:19;8.75;;;2.55;;
44766;SDS011;30487;48.716;9.272;2023-03-30T05:10:44;14.85;;;2.78;;
44766;SDS011;30487;48.716;9.272;2023-03-30T05:13:10;12.95;;;2.22;;
44766;SDS011;30487;48.716;9.272;2023-03-30T05:15:36;12.48;;;2.20;;
44766;SDS011;30487;48.716;9.272;2023-03-30T05:18:02;14.73;;;2.70;;
44766;SDS011;30487;48.716;9.272;2023-03-30T05:20:28;12.48;;;2.75;;
44766;SDS011;30487;48.716;9.272;2023-03-30T05:22:53;9.55;;;2.22;;
44766;SDS011;30487;48.716;9.272;2023-03-30T05:25:19;14.82;;;2.80;;
44766;SDS011;30487;48.716;9.272;2023-03-30T05:27:45;14.45;;;2.38;;
44766;SDS011;30487;48.716;9.272;2023-03-30T05:30:10;14.13;;;2.60;;
44766;SDS011;30487;48.716;9.272;2023-03-30T05:32:36;17.48;;;2.78;;
44766;SDS011;30487;48.716;9.272;2023-03-30T05:35:02;11.98;;;2.55;;
44766;SDS011;30487;48.716;9.272;2023-03-30T05:37:28;11.30;;;2.45;;
44766;SDS011;30487;48.716;9.272;2023-03-30T05:39:54;15.90;;;2.58;;
44766;SDS011;30487;48.716;9.272;2023-03-30T05:42:19;13.25;;;2.95;;
44766;SDS011;30487;48.716;9.272;2023-03-30T05:44:45;21.25;;;3.70;;
44766;SDS011;30487;48.716;9.272;2023-03-30T05:47:11;12.63;;;3.67;;
44766;SDS011;30487;48.716;9.272;2023-03-30T05:49:36;18.98;;;3.45;;
44766;SDS011;30487;48.716;9.272;2023-03-30T05:52:02;13.10;;;2.65;;
44766;SDS011;30487;48.716;9.272;2023-03-30T05:54:28;19.38;;;3.13;;
44766;SDS011;30487;48.716;9.272;2023-03-30T05:56:53;12.77;;;2.53;;
44766;SDS011;30487;48.716;9.272;2023-03-30T05:59:19;12.02;;;2.88;;
44766;SDS011;30487;48.716;9.272;2023-03-30T06:01:45;16.02;;;2.63;;
44766;SDS011;30487;48.716;9.272;2023-03-30T06:04:11;18.98;;;3.60;;
44766;SDS011;30487;48.716;9.272;2023-03-30T06:06:37;15.50;;;3.10;;
44766;SDS011;30487;48.716;9.272;2023-03-30T06:09:03;18.17;;;2.65;;
44766;SDS011;30487;48.716;9.272;2023-03-30T06:11:29;16.08;;;3.53;;
44766;SDS011;30487;48.716;9.272;2023-03-30T06:13:57;10.65;;;2.90;;
44766;SDS011;30487;48.716;9.272;2023-03-30T06:16:23;17.08;;;3.33;;
44766;SDS011;30487;48.716;9.272;2023-03-30T06:18:49;19.35;;;3.15;;
44766;SDS011;30487;48.716;9.272;2023-03-30T06:21:15;17.42;;;2.88;;
44766;SDS011;30487;48.716;9.272;2023-03-30T06:23:41;17.15;;;3.25;;
44766;SDS011;30487;48.716;9.272;2023-03-30T06:26:06;15.55;;;2.47;;
44766;SDS011;30487;48.716;9.272;2023-03-30T06:28:32;11.73;;;2.58;;
44766;SDS011;30487;48.716;9.272;2023-03-30T06:30:58;11.63;;;2.67;;
44766;SDS011;30487;48.716;9.272;2023-03-30T06:33:26;13.05;;;2.92;;
44766;SDS011;30487;48.716;9.272;2023-03-30T06:35:52;11.70;;;2.67;;
44766;SDS011;30487;48.716;9.272;2023-03-30T06:38:20;11.93;;;3.22;;
44766;SDS011;30487;48.716;9.272;2023-03-30T06:40:46;14.55;;;2.85;;
44766;SDS011;30487;48.716;9.272;2023-03-30T06:43:14;14.27;;;2.83;;
44766;SDS011;30487;48.716;9.272;2023-03-30T06:45:42;16.90;;;2.75;;
44766;SDS011;30487;48.716;9.272;2023-03-30T06:48:13;12.90;;;2.67;;
44766;SDS011;30487;48.716;9.272;2023-03-30T06:50:38;15.95;;;2.60;;
44766;SDS011;30487;48.716;9.272;2023-03-30T06:53:04;14.48;;;2.38;;
44766;SDS011;30487;48.716;9.272;2023-03-30T06:55:30;13.70;;;2.67;;
44766;SDS011;30487;48.716;9.272;2023-03-30T06:57:56;14.35;;;2.97;;
44766;SDS011;30487;48.716;9.272;2023-03-30T07:00:22;12.48;;;2.63;;
44766;SDS011;30487;48.716;9.272;2023-03-30T07:02:47;13.52;;;2.47;;
44766;SDS011;30487;48.716;9.272;2023-03-30T07:05:13;15.40;;;3.10;;
44766;SDS011;30487;48.716;9.272;2023-03-30T07:07:40;11.13;;;2.40;;
44766;SDS011;30487;48.716;9.272;2023-03-30T07:10:06;14.00;;;2.42;;
44766;SDS011;30487;48.716;9.272;2023-03-30T07:12:36;12.63;;;2.47;;
44766;SDS011;30487;48.716;9.272;2023-03-30T07:15:01;13.88;;;2.90;;
44766;SDS011;30487;48.716;9.272;2023-03-30T07:17:28;11.10;;;2.20;;
44766;SDS011;30487;48.716;9.272;2023-03-30T07:19:54;11.60;;;1.98;;
44766;SDS011;30487;48.716;9.272;2023-03-30T07:22:20;17.23;;;2.67;;
44766;SDS011;30487;48.716;9.272;2023-03-30T07:24:45;8.93;;;2.55;;
44766;SDS011;30487;48.716;9.272;2023-03-30T07:27:11;13.23;;;2.65;;
44766;SDS011;30487;48.716;9.272;2023-03-30T07:29:36;15.10;;;2.40;;
44766;SDS011;30487;48.716;9.272;2023-03-30T07:32:02;13.10;;;2.72;;
44766;SDS011;30487;48.716;9.272;2023-03-30T07:34:28;13.35;;;2.03;;
44766;SDS011;30487;48.716;9.272;2023-03-30T07:36:53;9.85;;;2.40;;
44766;SDS011;30487;48.716;9.272;2023-03-30T07:39:19;11.40;;;2.83;;
44766;SDS011;30487;48.716;9.272;2023-03-30T07:41:45;14.00;;;2.70;;
44766;SDS011;30487;48.716;9.272;2023-03-30T07:44:11;13.88;;;2.50;;
44766;SDS011;30487;48.716;9.272;2023-03-30T07:46:36;21.70;;;2.97;;
44766;SDS011;30487;48.716;9.272;2023-03-30T07:49:02;13.73;;;2.67;;
44766;SDS011;30487;48.716;9.272;2023-03-30T07:51:28;11.18;;;2.30;;
44766;SDS011;30487;48.716;9.272;2023-03-30T07:53:54;14.60;;;2.50;;
44766;SDS011;30487;48.716;9.272;2023-03-30T07:56:19;13.20;;;2.30;;
44766;SDS011;30487;48.716;9.272;2023-03-30T07:58:45;14.25;;;2.78;;
44766;SDS011;30487;48.716;9.272;2023-03-30T08:01:10;18.77;;;2.60;;
44766;SDS011;30487;48.716;9.272;2023-03-30T08:03:37;9.63;;;2.60;;
44766;SDS011;30487;48.716;9.272;2023-03-30T08:06:03;9.50;;;2.30;;
44766;SDS011;30487;48.716;9.272;2023-03-30T08:08:30;11.95;;;2.15;;
44766;SDS011;30487;48.716;9.272;2023-03-30T08:10:57;11.68;;;2.25;;
44766;SDS011;30487;48.716;9.272;2023-03-30T08:13:23;9.63;;;2.45;;
44766;SDS011;30487;48.716;9.272;2023-03-30T08:15:48;8.90;;;2.00;;
44766;SDS011;30487;48.716;9.272;2023-03-30T08:18:14;11.85;;;2.70;;
44766;SDS011;30487;48.716;9.272;2023-03-30T08:20:40;11.00;;;2.20;;
44766;SDS011;30487;48.716;9.272;2023-03-30T08:23:09;11.60;;;2.13;;
44766;SDS011;30487;48.716;9.272;2023-03-30T08:25:35;15.07;;;2.35;;
44766;SDS011;30487;48.716;9.272;2023-03-30T08:28:01;9.30;;;2.10;;
44766;SDS011;30487;48.716;9.272;2023-03-30T08:30:29;9.43;;;2.50;;
44766;SDS011;30487;48.716;9.272;2023-03-30T08:32:55;11.38;;;2.50;;
44766;SDS011;30487;48.716;9.272;2023-03-30T08:35:21;9.00;;;2.30;;
44766;SDS011;30487;48.716;9.272;2023-03-30T08:37:47;8.18;;;2.08;;
44766;SDS011;30487;48.716;9.272;2023-03-30T08:40:13;10.07;;;2.00;;
44766;SDS011;30487;48.716;9.272;2023-03-30T08:45:42;6.95;;;2.00;;
44766;SDS011;30487;48.716;9.272;2023-03-30T08:48:30;6.35;;;1.83;;
44766;SDS011;30487;48.716;9.272;2023-03-30T08:51:04;6.68;;;2.00;;
44766;SDS011;30487;48.716;9.272;2023-03-30T08:53:32;6.80;;;2.13;;
44766;SDS011;30487;48.716;9.272;2023-03-30T09:04:12;9.25;;;2.63;;
44766;SDS011;30487;48.716;9.272;2023-03-30T09:09:28;10.23;;;2.67;;
44766;SDS011;30487;48.716;9.272;2023-03-30T09:12:07;12.68;;;2.45;;
44766;SDS011;30487;48.716;9.272;2023-03-30T09:14:50;12.57;;;2.55;;
44766;SDS011;30487;48.716;9.272;2023-03-30T09:17:24;8.30;;;2.00;;
44766;SDS011;30487;48.716;9.272;2023-03-30T09:20:05;13.20;;;2.50;;
44766;SDS011;30487;48.716;9.272;2023-03-30T09:22:38;9.70;;;2.28;;
44766;SDS011;30487;48.716;9.272;2023-03-30T09:25:13;10.20;;;2.22;;
44766;SDS011;30487;48.716;9.272;2023-03-30T09:27:44;12.13;;;2.30;;
44766;SDS011;30487;48.716;9.272;2023-03-30T09:30:36;8.88;;;1.73;;
44766;SDS011;30487;48.716;9.272;2023-03-30T09:33:26;3.50;;;1.20;;
44766;SDS011;30487;48.716;9.272;2023-03-30T09:36:06;5.45;;;1.25;;
44766;SDS011;30487;48.716;9.272;2023-03-30T09:38:39;4.90;;;1.90;;
44766;SDS011;30487;48.716;9.272;2023-03-30T09:44:12;4.38;;;1.50;;
44766;SDS011;30487;48.716;9.272;2023-03-30T09:46:44;7.70;;;1.40;;
44766;SDS011;30487;48.716;9.272;2023-03-30T09:49:14;3.35;;;1.20;;
44766;SDS011;30487;48.716;9.272;2023-03-30T09:52:00;4.72;;;1.67;;
44766;SDS011;30487;48.716;9.272;2023-03-30T09:54:37;7.45;;;1.30;;
44766;SDS011;30487;48.716;9.272;2023-03-30T09:57:05;4.20;;;1.50;;
44766;SDS011;30487;48.716;9.272;2023-03-30T09:59:46;4.80;;;1.40;;
44766;SDS011;30487;48.716;9.272;2023-03-30T10:09:55;6.13;;;1.60;;
44766;SDS011;30487;48.716;9.272;2023-03-30T10:12:23;6.18;;;1.92;;
44766;SDS011;30487;48.716;9.272;2023-03-30T10:14:59;3.97;;;1.70;;
44766;SDS011;30487;48.716;9.272;2023-03-30T10:17:26;8.40;;;1.70;;
44766;SDS011;30487;48.716;9.272;2023-03-30T10:19:52;4.50;;;1.33;;
44766;SDS011;30487;48.716;9.272;2023-03-30T10:22:37;6.28;;;2.13;;
44766;SDS011;30487;48.716;9.272;2023-03-30T10:25:17;4.28;;;1.88;;
44766;SDS011;30487;48.716;9.272;2023-03-30T10:27:48;7.75;;;1.33;;
44766;SDS011;30487;48.716;9.272;2023-03-30T10:30:17;5.35;;;1.63;;
44766;SDS011;30487;48.716;9.272;2023-03-30T10:32:47;5.47;;;1.98;;
44766;SDS011;30487;48.716;9.272;2023-03-30T10:35:17;4.45;;;1.65;;
44766;SDS011;30487;48.716;9.272;2023-03-30T10:37:45;4.78;;;1.60;;
44766;SDS011;30487;48.716;9.272;2023-03-30T10:40:16;6.43;;;2.00;;
44766;SDS011;30487;48.716;9.272;2023-03-30T10:42:45;5.70;;;1.50;;
44766;SDS011;30487;48.716;9.272;2023-03-30T10:45:56;6.15;;;1.75;;
44766;SDS011;30487;48.716;9.272;2023-03-30T10:48:16;7.00;;;1.70;;
44766;SDS011;30487;48.716;9.272;2023-03-30T10:53:29;4.90;;;1.60;;
44766;SDS011;30487;48.716;9.272;2023-03-30T10:59:03;6.15;;;2.10;;
44766;SDS011;30487;48.716;9.272;2023-03-30T11:01:38;4.72;;;1.75;;
44766;SDS011;30487;48.716;9.272;2023-03-30T11:04:09;10.23;;;2.10;;
44766;SDS011;30487;48.716;9.272;2023-03-30T11:06:41;7.72;;;1.90;;
44766;SDS011;30487;48.716;9.272;2023-03-30T11:09:18;6.38;;;1.88;;
44766;SDS011;30487;48.716;9.272;2023-03-30T11:11:49;9.18;;;1.88;;
44766;SDS011;30487;48.716;9.272;2023-03-30T11:14:20;7.20;;;1.88;;
44766;SDS011;30487;48.716;9.272;2023-03-30T11:17:10;8.57;;;1.88;;
44766;SDS011;30487;48.716;9.272;2023-03-30T11:19:45;5.15;;;1.95;;
44766;SDS011;30487;48.716;9.272;2023-03-30T11:24:59;8.90;;;2.20;;
44766;SDS011;30487;48.716;9.272;2023-03-30T11:27:27;6.35;;;2.17;;
44766;SDS011;30487;48.716;9.272;2023-03-30T11:35:47;5.63;;;2.00;;
44766;SDS011;30487;48.716;9.272;2023-03-30T11:38:22;7.18;;;2.10;;
44766;SDS011;30487;48.716;9.272;2023-03-30T11:40:54;7.70;;;2.00;;
44766;SDS011;30487;48.716;9.272;2023-03-30T11:43:40;6.95;;;2.13;;
44766;SDS011;30487;48.716;9.272;2023-03-30T11:56:35;7.97;;;2.33;;
44766;SDS011;30487;48.716;9.272;2023-03-30T11:59:04;6.22;;;2.10;;
44766;SDS011;30487;48.716;9.272;2023-03-30T12:04:44;11.27;;;2.53;;
44766;SDS011;30487;48.716;9.272;2023-03-30T12:07:28;7.32;;;2.20;;
44766;SDS011;30487;48.716;9.272;2023-03-30T12:10:05;5.65;;;1.60;;
44766;SDS011;30487;48.716;9.272;2023-03-30T12:12:42;7.22;;;2.22;;
44766;SDS011;30487;48.716;9.272;2023-03-30T12:17:55;5.93;;;2.22;;
44766;SDS011;30487;48.716;9.272;2023-03-30T12:23:16;9.27;;;2.70;;
44766;SDS011;30487;48.716;9.272;2023-03-30T12:31:13;10.63;;;2.40;;
44766;SDS011;30487;48.716;9.272;2023-03-30T12:33:47;9.68;;;2.10;;
44766;SDS011;30487;48.716;9.272;2023-03-30T12:36:24;8.00;;;2.33;;
44766;SDS011;30487;48.716;9.272;2023-03-30T12:39:25;6.82;;;2.15;;
44766;SDS011;30487;48.716;9.272;2023-03-30T12:56:04;9.43;;;2.22;;
44766;SDS011;30487;48.716;9.272;2023-03-30T13:01:44;6.43;;;2.20;;
44766;SDS011;30487;48.716;9.272;2023-03-30T13:04:33;5.32;;;2.25;;
44766;SDS011;30487;48.716;9.272;2023-03-30T13:07:03;9.27;;;2.38;;
44766;SDS011;30487;48.716;9.272;2023-03-30T13:09:50;6.70;;;1.90;;
44766;SDS011;30487;48.716;9.272;2023-03-30T13:12:26;6.43;;;1.92;;
44766;SDS011;30487;48.716;9.272;2023-03-30T13:18:22;5.70;;;1.73;;
44766;SDS011;30487;48.716;9.272;2023-03-30T13:20:34;6.85;;;2.10;;
44766;SDS011;30487;48.716;9.272;2023-03-30T13:25:44;5.90;;;1.92;;
44766;SDS011;30487;48.716;9.272;2023-03-30T13:31:07;6.25;;;1.95;;
44766;SDS011;30487;48.716;9.272;2023-03-30T13:33:48;7.07;;;1.85;;
44766;SDS011;30487;48.716;9.272;2023-03-30T13:36:28;5.78;;;1.77;;
44766;SDS011;30487;48.716;9.272;2023-03-30T13:38:59;5.95;;;2.10;;
44766;SDS011;30487;48.716;9.272;2023-03-30T13:42:08;6.72;;;1.88;;
44766;SDS011;30487;48.716;9.272;2023-03-30T13:47:37;9.90;;;2.13;;
44766;SDS011;30487;48.716;9.272;2023-03-30T13:50:15;5.72;;;1.73;;
44766;SDS011;30487;48.716;9.272;2023-03-30T13:52:49;3.65;;;1.50;;
44766;SDS011;30487;48.716;9.272;2023-03-30T13:55:27;5.45;;;1.83;;
44766;SDS011;30487;48.716;9.272;2023-03-30T13:57:55;6.03;;;1.63;;
44766;SDS011;30487;48.716;9.272;2023-03-30T14:00:51;6.25;;;1.67;;
44766;SDS011;30487;48.716;9.272;2023-03-30T14:06:19;6.28;;;1.67;;
44766;SDS011;30487;48.716;9.272;2023-03-30T14:08:52;5.05;;;1.77;;
44766;SDS011;30487;48.716;9.272;2023-03-30T14:14:03;5.65;;;1.40;;
44766;SDS011;30487;48.716;9.272;2023-03-30T14:16:36;5.00;;;1.50;;
44766;SDS011;30487;48.716;9.272;2023-03-30T14:19:09;3.90;;;1.52;;
44766;SDS011;30487;48.716;9.272;2023-03-30T14:21:45;5.22;;;1.40;;
44766;SDS011;30487;48.716;9.272;2023-03-30T14:24:16;6.25;;;1.55;;
44766;SDS011;30487;48.716;9.272;2023-03-30T14:26:44;3.22;;;1.33;;
44766;SDS011;30487;48.716;9.272;2023-03-30T14:29:16;3.75;;;1.25;;
44766;SDS011;30487;48.716;9.272;2023-03-30T14:31:44;5.43;;;1.67;;
44766;SDS011;30487;48.716;9.272;2023-03-30T14:34:44;5.00;;;1.15;;
44766;SDS011;30487;48.716;9.272;2023-03-30T14:37:10;5.47;;;1.48;;
44766;SDS011;30487;48.716;9.272;2023-03-30T14:39:38;4.10;;;1.50;;
44766;SDS011;30487;48.716;9.272;2023-03-30T14:42:14;3.80;;;1.40;;
44766;SDS011;30487;48.716;9.272;2023-03-30T14:44:42;4.78;;;1.17;;
44766;SDS011;30487;48.716;9.272;2023-03-30T14:47:10;4.28;;;1.40;;
44766;SDS011;30487;48.716;9.272;2023-03-30T14:49:36;3.55;;;1.35;;
44766;SDS011;30487;48.716;9.272;2023-03-30T14:52:13;4.57;;;1.38;;
44766;SDS011;30487;48.716;9.272;2023-03-30T14:54:44;3.38;;;1.40;;
44766;SDS011;30487;48.716;9.272;2023-03-30T14:57:11;6.80;;;1.52;;
44766;SDS011;30487;48.716;9.272;2023-03-30T14:59:44;2.72;;;1.20;;
44766;SDS011;30487;48.716;9.272;2023-03-30T15:04:46;4.80;;;1.10;;
44766;SDS011;30487;48.716;9.272;2023-03-30T15:07:13;4.30;;;1.33;;
44766;SDS011;30487;48.716;9.272;2023-03-30T15:09:41;6.82;;;1.63;;
44766;SDS011;30487;48.716;9.272;2023-03-30T15:12:11;6.25;;;1.45;;
44766;SDS011;30487;48.716;9.272;2023-03-30T15:14:44;4.30;;;1.50;;
44766;SDS011;30487;48.716;9.272;2023-03-30T15:17:16;4.35;;;1.50;;
44766;SDS011;30487;48.716;9.272;2023-03-30T15:19:45;8.88;;;1.60;;
44766;SDS011;30487;48.716;9.272;2023-03-30T15:22:32;5.72;;;1.38;;
44766;SDS011;30487;48.716;9.272;2023-03-30T15:25:03;6.32;;;1.42;;
44766;SDS011;30487;48.716;9.272;2023-03-30T15:27:32;6.13;;;1.40;;
44766;SDS011;30487;48.716;9.272;2023-03-30T15:30:00;5.63;;;1.20;;
44766;SDS011;30487;48.716;9.272;2023-03-30T15:32:37;4.82;;;1.27;;
44766;SDS011;30487;48.716;9.272;2023-03-30T15:35:05;3.83;;;1.30;;
44766;SDS011;30487;48.716;9.272;2023-03-30T15:37:32;3.67;;;1.30;;
44766;SDS011;30487;48.716;9.272;2023-03-30T15:39:59;3.03;;;1.10;;
44766;SDS011;30487;48.716;9.272;2023-03-30T15:42:45;4.57;;;1.25;;
44766;SDS011;30487;48.716;9.272;2023-03-30T15:45:11;5.72;;;1.02;;
44766;SDS011;30487;48.716;9.272;2023-03-30T15:47:40;6.57;;;1.02;;
44766;SDS011;30487;48.716;9.272;2023-03-30T15:50:10;3.58;;;1.20;;
44766;SDS011;30487;48.716;9.272;2023-03-30T15:52:40;4.43;;;1.00;;
44766;SDS011;30487;48.716;9.272;2023-03-30T15:55:12;3.42;;;0.93;;
44766;SDS011;30487;48.716;9.272;2023-03-30T15:57:45;4.75;;;1.02;;
44766;SDS011;30487;48.716;9.272;2023-03-30T16:00:13;5.55;;;1.00;;
44766;SDS011;30487;48.716;9.272;2023-03-30T16:05:21;2.50;;;0.80;;
44766;SDS011;30487;48.716;9.272;2023-03-30T16:07:49;2.58;;;0.90;;
44766;SDS011;30487;48.716;9.272;2023-03-30T16:10:15;4.60;;;0.90;;
44766;SDS011;30487;48.716;9.272;2023-03-30T16:12:52;2.03;;;0.73;;
44766;SDS011;30487;48.716;9.272;2023-03-30T16:15:23;3.15;;;0.70;;
44766;SDS011;30487;48.716;9.272;2023-03-30T16:17:51;1.48;;;0.52;;
44766;SDS011;30487;48.716;9.272;2023-03-30T16:20:27;2.70;;;0.73;;
44766;SDS011;30487;48.716;9.272;2023-03-30T16:22:55;1.80;;;0.60;;
44766;SDS011;30487;48.716;9.272;2023-03-30T16:25:21;3.72;;;0.57;;
44766;SDS011;30487;48.716;9.272;2023-03-30T16:27:49;3.88;;;0.75;;
44766;SDS011;30487;48.716;9.272;2023-03-30T16:30:20;3.35;;;0.80;;
44766;SDS011;30487;48.716;9.272;2023-03-30T16:32:51;2.00;;;0.60;;
44766;SDS011;30487;48.716;9.272;2023-03-30T16:35:16;4.30;;;0.75;;
44766;SDS011;30487;48.716;9.272;2023-03-30T16:37:42;3.53;;;0.73;;
44766;SDS011;30487;48.716;9.272;2023-03-30T16:40:12;3.38;;;0.65;;
44766;SDS011;30487;48.716;9.272;2023-03-30T16:42:46;2.63;;;0.70;;
44766;SDS011;30487;48.716;9.272;2023-03-30T16:45:11;4.20;;;0.65;;
44766;SDS011;30487;48.716;9.272;2023-03-30T16:47:37;0.98;;;0.55;;
44766;SDS011;30487;48.716;9.272;2023-03-30T16:52:49;3.97;;;0.80;;
44766;SDS011;30487;48.716;9.272;2023-03-30T16:55:15;1.23;;;0.50;;
44766;SDS011;30487;48.716;9.272;2023-03-30T16:57:42;2.22;;;0.90;;
44766;SDS011;30487;48.716;9.272;2023-03-30T17:00:30;3.80;;;0.68;;
44766;SDS011;30487;48.716;9.272;2023-03-30T17:02:55;3.10;;;0.80;;
44766;SDS011;30487;48.716;9.272;2023-03-30T17:05:21;2.25;;;0.60;;
44766;SDS011;30487;48.716;9.272;2023-03-30T17:07:47;3.15;;;0.68;;
44766;SDS011;30487;48.716;9.272;2023-03-30T17:10:26;2.95;;;0.63;;
44766;SDS011;30487;48.716;9.272;2023-03-30T17:12:54;3.33;;;0.80;;
44766;SDS011;30487;48.716;9.272;2023-03-30T17:15:21;2.92;;;0.70;;
44766;SDS011;30487;48.716;9.272;2023-03-30T17:17:48;3.70;;;0.80;;
44766;SDS011;30487;48.716;9.272;2023-03-30T17:22:46;1.42;;;0.65;;
44766;SDS011;30487;48.716;9.272;2023-03-30T17:25:12;5.32;;;1.00;;